Pagrindinis puslapis
METAR-TAF:

METAR-TAF

Oro uostai :

Niamėjus, Nigeris

platuma: 13-29N, ilguma: 002-10E, Aukštis: 223 m

Dabartinis oras

Ataskaita buvo paskelbta 1 valandą ir 2 minutes, ne 14:00 UTC
Vėjas 4 kt iš Pietryčių, svyruoja nuo Rytų/Šiaurės Rytų ir Pietvakarių
Temperatūra 43°C
Drėgmė 12%
Slėgis 1007 hPa
Matomumas: 7000 m

METAR: DRRN 121400Z 14004KT 070V230 7000 NSC 43/07 Q1007 NOSIG

Laikas: 16:02 (15:02 UTC)

Prognozė

Ataskaita buvo paskelbta 4 valandos ir 2 minutes, ne 11:00 UTC
Prognozė galioja nuo 12 metu 12 UTC su 13 metu 18 UTC
Vėjas 10 kt iš Vakarų
Matomumas 10 km arba daugiau
nėra debesų žemiau 1500 m ir nėra kamuolinių lietaus debesų
Tikimybė 40%
nuo 12 metu 13 UTC su 12 metu 18 UTC
Vėjas 25 kt nuo kintamojo kryptimis
Matomumas: 1200 m
Išsisklaidę debesys ne aukštis 3000 ft
Mažai debesys ne aukštis 4000 ft, Liūtiniai kamuoliniai debesys.
Dulkes pustymas, perkūnija

TAF: DRRN 121100Z 1212/1318 26010KT CAVOK PROB40 1213/1218 VRB25KT 1200 BLDU TS SCT030 FEW040CB

Orai ataskaitas ir orų prognozės (METAR, TAF).

turimą stotys yra geltonos ir raudonos taškus žemėlapyje.

Perkelti pele per norėdami pamatyti stoties vardą.

Tada spustelėkite, norėdami matyti oro stebėjimo ir prognozės.

Norėdami pakeisti žemėlapį: spustelėkite ant žalios mygtukų su juodo kryžiaus žemyn,; žalią mygtuką su brūkšneliu, jei norite nutolinti; arba žalių rodyklių gretimoms žemėlapius.


METAR-TAF: